createdAt,value
2023-01-13T00:54:25.322Z,95229.00
2023-01-13T00:55:26.246Z,95225.00
2023-01-13T00:56:39.615Z,95223.00
2023-01-13T00:57:26.157Z,95219.00
2023-01-13T00:58:26.100Z,95217.00
2023-01-13T00:59:26.054Z,95219.00
2023-01-13T01:00:26.001Z,95217.00
2023-01-13T01:01:26.107Z,95219.00
2023-01-13T01:02:25.947Z,95223.00
2023-01-13T01:03:25.868Z,95227.00
2023-01-13T01:04:25.863Z,95229.00
2023-01-13T01:05:25.788Z,95229.00
2023-01-13T01:06:25.739Z,95227.00
2023-01-13T01:07:25.690Z,95227.00
2023-01-13T01:08:25.644Z,95227.00
2023-01-13T01:09:25.586Z,95232.00
2023-01-13T01:10:25.596Z,95240.00
2023-01-13T01:11:25.508Z,95248.00
2023-01-13T01:12:25.462Z,95250.00
2023-01-13T01:13:25.403Z,95252.00
2023-01-13T01:14:25.358Z,95252.00
2023-01-13T01:15:25.315Z,95250.00
2023-01-13T01:16:25.322Z,95250.00
2023-01-13T01:17:25.224Z,95252.00
2023-01-13T01:18:25.180Z,95254.00
2023-01-13T01:19:25.154Z,95254.00
2023-01-13T01:20:25.092Z,95250.00
2023-01-13T01:21:25.036Z,95252.00
2023-01-13T01:22:24.992Z,95254.00
2023-01-13T01:23:24.944Z,95254.00
2023-01-13T01:24:24.915Z,95254.00
2023-01-13T01:25:24.858Z,95246.00
2023-01-13T01:26:24.847Z,95242.00
2023-01-13T01:27:24.760Z,95242.00
2023-01-13T01:28:24.710Z,95240.00
2023-01-13T01:29:24.676Z,95240.00
2023-01-13T01:30:24.623Z,95244.00
2023-01-13T01:31:24.679Z,95244.00
2023-01-13T01:32:24.532Z,95244.00
2023-01-13T01:33:24.487Z,95242.00
2023-01-13T01:34:24.443Z,95240.00
2023-01-13T01:35:24.389Z,95238.00
2023-01-13T01:36:24.353Z,95238.00
2023-01-13T01:37:24.307Z,95236.00
2023-01-13T01:38:24.241Z,95236.00
2023-01-13T01:39:24.195Z,95236.00
2023-01-13T01:40:24.151Z,95232.00
2023-01-13T01:41:24.097Z,95232.00
2023-01-13T01:42:24.078Z,95229.00
2023-01-13T01:43:24.006Z,95232.00
2023-01-13T01:44:23.951Z,95230.00
2023-01-13T01:45:23.941Z,95230.00
2023-01-13T01:46:23.898Z,95229.00
2023-01-13T01:47:23.823Z,95225.00
2023-01-13T01:48:23.762Z,95227.00
2023-01-13T01:49:23.712Z,95230.00
2023-01-13T01:50:23.663Z,95229.00
2023-01-13T01:51:23.612Z,95230.00
2023-01-13T01:52:23.567Z,95230.00
2023-01-13T01:53:23.518Z,95230.00
2023-01-13T01:54:23.492Z,95230.00
2023-01-13T01:55:23.426Z,95232.00
2023-01-13T01:56:23.381Z,95234.00
2023-01-13T01:57:23.358Z,95234.00
2023-01-13T01:58:23.317Z,95236.00
2023-01-13T01:59:23.262Z,95236.00
2023-01-13T02:00:23.193Z,95236.00
2023-01-13T02:01:23.217Z,95238.00
2023-01-13T02:02:23.122Z,95238.00
2023-01-13T02:03:23.054Z,95236.00
2023-01-13T02:04:23.011Z,95236.00
2023-01-13T02:05:22.979Z,95234.00
2023-01-13T02:06:22.922Z,95232.00
2023-01-13T02:07:22.899Z,95232.00
2023-01-13T02:08:22.842Z,95230.00
2023-01-13T02:09:22.801Z,95229.00
2023-01-13T02:10:22.775Z,95229.00
2023-01-13T02:11:22.724Z,95229.00
2023-01-13T02:12:22.678Z,95230.00
2023-01-13T02:13:22.655Z,95230.00
2023-01-13T02:14:22.625Z,95227.00
2023-01-13T02:15:22.542Z,95225.00
2023-01-13T02:16:22.560Z,95225.00
2023-01-13T02:17:22.469Z,95223.00
2023-01-13T02:18:22.418Z,95225.00
2023-01-13T02:19:22.365Z,95225.00
2023-01-13T02:20:22.324Z,95223.00
2023-01-13T02:21:22.296Z,95221.00
2023-01-13T02:22:22.237Z,95223.00
2023-01-13T02:23:22.199Z,95221.00
2023-01-13T02:24:22.154Z,95223.00
2023-01-13T02:25:22.107Z,95219.00
2023-01-13T02:26:22.064Z,95221.00
2023-01-13T02:27:22.011Z,95221.00
2023-01-13T02:28:21.980Z,95221.00
2023-01-13T02:29:21.908Z,95221.00
2023-01-13T02:30:21.884Z,95219.00
2023-01-13T02:31:21.900Z,95221.00
2023-01-13T02:32:21.772Z,95219.00
2023-01-13T02:33:21.741Z,95217.00
2023-01-13T02:34:21.664Z,95211.00
2023-01-13T02:35:21.623Z,95205.00
2023-01-13T02:36:21.568Z,95203.00
2023-01-13T02:37:21.522Z,95203.00
2023-01-13T02:38:21.533Z,95201.00
2023-01-13T02:39:21.430Z,95201.00
2023-01-13T02:40:21.393Z,95199.00
2023-01-13T02:41:21.338Z,95197.00
2023-01-13T02:42:21.297Z,95201.00
2023-01-13T02:43:21.299Z,95201.00
2023-01-13T02:44:21.191Z,95203.00
2023-01-13T02:45:21.151Z,95199.00
2023-01-13T02:46:21.122Z,95195.00
2023-01-13T02:47:21.071Z,95195.00
2023-01-13T02:48:21.015Z,95191.00
2023-01-13T02:49:20.966Z,95193.00
2023-01-13T02:50:20.919Z,95193.00
2023-01-13T02:51:20.877Z,95199.00
2023-01-13T02:52:20.827Z,95201.00
2023-01-13T02:53:20.809Z,95207.00
2023-01-13T02:54:20.743Z,95209.00
2023-01-13T02:55:20.695Z,95207.00
2023-01-13T02:56:20.642Z,95207.00
2023-01-13T02:57:20.622Z,95209.00
2023-01-13T02:58:20.564Z,95209.00
2023-01-13T02:59:20.515Z,95213.00
2023-01-13T03:00:20.477Z,95215.00
2023-01-13T03:01:20.519Z,95215.00
2023-01-13T03:02:20.585Z,95217.00
2023-01-13T03:03:20.334Z,95215.00
2023-01-13T03:04:20.288Z,95213.00
2023-01-13T03:05:20.245Z,95209.00
2023-01-13T03:06:20.195Z,95205.00
2023-01-13T03:07:20.145Z,95205.00
2023-01-13T03:08:20.103Z,95201.00
2023-01-13T03:09:20.055Z,95203.00
2023-01-13T03:10:20.006Z,95203.00
2023-01-13T03:11:19.963Z,95199.00
2023-01-13T03:12:19.898Z,95197.00
2023-01-13T03:13:19.857Z,95195.00
2023-01-13T03:14:19.824Z,95197.00
2023-01-13T03:15:19.763Z,95193.00
2023-01-13T03:16:19.792Z,95189.00
2023-01-13T03:17:19.667Z,95189.00
2023-01-13T03:18:19.642Z,95189.00
2023-01-13T03:19:19.559Z,95189.00
2023-01-13T03:20:19.510Z,95193.00
2023-01-13T03:21:19.517Z,95191.00
2023-01-13T03:22:19.418Z,95189.00
2023-01-13T03:23:19.390Z,95187.00
2023-01-13T03:24:19.338Z,95185.00
2023-01-13T03:25:19.266Z,95180.00
2023-01-13T03:26:20.055Z,95182.00
2023-01-13T03:27:19.186Z,95178.00
2023-01-13T03:28:19.127Z,95178.00
2023-01-13T03:29:19.111Z,95180.00
2023-01-13T03:30:19.036Z,95176.00
2023-01-13T03:31:18.988Z,95174.00
2023-01-13T03:32:18.948Z,95178.00
2023-01-13T03:33:18.913Z,95180.00
2023-01-13T03:34:18.911Z,95180.00
2023-01-13T03:35:18.799Z,95178.00
2023-01-13T03:36:18.754Z,95176.00
2023-01-13T03:37:18.708Z,95180.00
2023-01-13T03:38:18.670Z,95178.00
2023-01-13T03:39:18.736Z,95180.00
2023-01-13T03:40:18.578Z,95178.00
2023-01-13T03:41:18.528Z,95174.00
2023-01-13T03:42:18.492Z,95170.00
2023-01-13T03:43:18.427Z,95170.00
2023-01-13T03:44:18.392Z,95174.00
2023-01-13T03:45:18.337Z,95174.00
2023-01-13T03:46:18.380Z,95172.00
2023-01-13T03:47:18.242Z,95172.00
2023-01-13T03:48:18.203Z,95174.00
2023-01-13T03:49:18.156Z,95174.00
2023-01-13T03:50:18.149Z,95174.00
2023-01-13T03:51:18.076Z,95172.00
2023-01-13T03:52:18.055Z,95174.00
2023-01-13T03:53:17.977Z,95178.00
2023-01-13T03:54:17.928Z,95178.00
2023-01-13T03:55:17.884Z,95178.00
2023-01-13T03:56:17.930Z,95180.00
2023-01-13T03:57:17.783Z,95180.00
2023-01-13T03:58:17.802Z,95180.00
2023-01-13T03:59:17.688Z,95182.00
2023-01-13T04:00:17.643Z,95182.00
2023-01-13T04:01:17.746Z,95180.00
2023-01-13T04:02:17.591Z,95182.00
2023-01-13T04:03:17.556Z,95183.00
2023-01-13T04:04:17.467Z,95185.00
2023-01-13T04:05:17.396Z,95189.00
2023-01-13T04:06:17.383Z,95189.00
2023-01-13T04:07:17.309Z,95189.00
2023-01-13T04:08:17.260Z,95189.00
2023-01-13T04:09:17.211Z,95189.00
2023-01-13T04:10:17.168Z,95193.00
2023-01-13T04:11:17.122Z,95197.00
2023-01-13T04:12:17.077Z,95199.00
2023-01-13T04:13:17.031Z,95203.00
2023-01-13T04:14:16.988Z,95199.00
2023-01-13T04:15:16.939Z,95199.00
2023-01-13T04:16:16.904Z,95199.00
2023-01-13T04:17:16.879Z,95199.00
2023-01-13T04:18:16.796Z,95199.00
2023-01-13T04:19:16.754Z,95199.00
2023-01-13T04:20:16.707Z,95197.00
2023-01-13T04:21:16.681Z,95199.00
2023-01-13T04:22:16.637Z,95199.00
2023-01-13T04:23:16.563Z,95197.00
2023-01-13T04:24:16.519Z,95195.00
2023-01-13T04:25:16.474Z,95193.00
2023-01-13T04:26:16.415Z,95191.00
2023-01-13T04:27:16.367Z,95189.00
2023-01-13T04:28:16.335Z,95189.00
2023-01-13T04:29:16.308Z,95191.00
2023-01-13T04:30:16.243Z,95193.00
2023-01-13T04:31:16.223Z,95189.00
2023-01-13T04:32:16.124Z,95185.00
2023-01-13T04:33:16.080Z,95182.00
2023-01-13T04:34:16.132Z,95182.00
2023-01-13T04:35:15.983Z,95182.00
2023-01-13T04:36:15.959Z,95183.00
2023-01-13T04:37:15.876Z,95185.00
2023-01-13T04:38:15.862Z,95185.00
2023-01-13T04:39:15.817Z,95185.00
2023-01-13T04:40:15.732Z,95183.00
2023-01-13T04:41:15.712Z,95180.00
2023-01-13T04:42:15.644Z,95180.00
2023-01-13T04:43:15.679Z,95180.00
2023-01-13T04:44:15.555Z,95178.00
2023-01-13T04:45:15.524Z,95178.00
2023-01-13T04:46:15.603Z,95176.00
2023-01-13T04:47:15.419Z,95170.00
2023-01-13T04:48:15.376Z,95170.00
2023-01-13T04:49:15.315Z,95172.00
2023-01-13T04:50:15.274Z,95172.00
2023-01-13T04:51:15.269Z,95174.00
2023-01-13T04:52:15.188Z,95176.00
2023-01-13T04:53:15.138Z,95178.00
2023-01-13T04:54:15.106Z,95183.00
2023-01-13T04:55:15.024Z,95189.00
2023-01-13T04:56:15.027Z,95195.00
2023-01-13T04:57:14.936Z,95195.00
2023-01-13T04:58:14.896Z,95193.00
2023-01-13T04:59:14.869Z,95189.00
2023-01-13T05:00:14.805Z,95187.00
2023-01-13T05:01:14.963Z,95197.00
2023-01-13T05:02:14.759Z,95199.00
2023-01-13T05:03:14.682Z,95197.00
2023-01-13T05:04:14.723Z,95189.00
2023-01-13T05:05:14.595Z,95185.00
2023-01-13T05:06:14.564Z,95183.00
2023-01-13T05:07:14.511Z,95180.00
2023-01-13T05:08:14.458Z,95183.00
2023-01-13T05:09:14.435Z,95185.00
2023-01-13T05:10:14.411Z,95187.00
2023-01-13T05:11:14.325Z,95185.00
2023-01-13T05:12:14.291Z,95185.00
2023-01-13T05:13:14.246Z,95183.00
2023-01-13T05:14:14.252Z,95180.00
2023-01-13T05:15:14.175Z,95180.00
2023-01-13T05:16:14.183Z,95180.00
2023-01-13T05:17:14.060Z,95178.00
2023-01-13T05:18:14.032Z,95182.00
2023-01-13T05:19:13.973Z,95182.00
2023-01-13T05:20:13.933Z,95182.00
2023-01-13T05:21:13.888Z,95180.00
2023-01-13T05:22:13.851Z,95174.00
2023-01-13T05:23:13.799Z,95178.00
2023-01-13T05:24:13.778Z,95183.00
2023-01-13T05:25:13.716Z,95183.00
2023-01-13T05:26:13.690Z,95183.00
2023-01-13T05:27:13.624Z,95183.00
2023-01-13T05:28:13.621Z,95182.00
2023-01-13T05:29:13.528Z,95178.00
2023-01-13T05:30:13.475Z,95178.00
2023-01-13T05:31:13.461Z,95180.00
2023-01-13T05:32:13.395Z,95183.00
2023-01-13T05:33:13.352Z,95185.00
2023-01-13T05:34:13.289Z,95183.00
2023-01-13T05:35:13.243Z,95174.00
2023-01-13T05:36:13.195Z,95166.00
2023-01-13T05:37:13.158Z,95162.00
2023-01-13T05:38:13.164Z,95166.00
2023-01-13T05:39:13.054Z,95170.00
2023-01-13T05:40:13.006Z,95162.00
2023-01-13T05:41:12.959Z,95142.00
2023-01-13T05:42:12.935Z,95136.00
2023-01-13T05:43:12.920Z,95144.00
2023-01-13T05:44:12.812Z,95154.00
2023-01-13T05:45:12.768Z,95166.00
2023-01-13T05:46:12.795Z,95170.00
2023-01-13T05:47:12.661Z,95166.00
2023-01-13T05:48:12.682Z,95168.00
2023-01-13T05:49:12.567Z,95164.00
2023-01-13T05:50:12.529Z,95172.00
2023-01-13T05:51:12.480Z,95172.00
2023-01-13T05:52:12.446Z,95176.00
2023-01-13T05:53:12.370Z,95176.00
2023-01-13T05:54:12.323Z,95172.00
2023-01-13T05:55:12.288Z,95170.00
2023-01-13T05:56:12.251Z,95164.00
2023-01-13T05:57:12.190Z,95166.00
2023-01-13T05:58:12.187Z,95160.00
2023-01-13T05:59:12.099Z,95156.00
2023-01-13T06:00:12.107Z,95154.00
2023-01-13T06:01:12.084Z,95140.00
2023-01-13T06:02:11.932Z,95136.00
2023-01-13T06:03:11.952Z,95138.00
2023-01-13T06:04:11.859Z,95136.00
2023-01-13T06:05:11.801Z,95138.00
2023-01-13T06:06:11.768Z,95144.00
2023-01-13T06:07:11.695Z,95156.00
2023-01-13T06:08:11.601Z,95158.00
2023-01-13T06:09:11.569Z,95154.00
2023-01-13T06:10:11.501Z,95154.00
2023-01-13T06:11:11.472Z,95144.00
2023-01-13T06:12:11.386Z,95152.00
2023-01-13T06:13:11.360Z,95154.00
2023-01-13T06:14:11.312Z,95154.00
2023-01-13T06:15:11.231Z,95154.00
2023-01-13T06:16:11.309Z,95152.00
2023-01-13T06:17:11.165Z,95144.00
2023-01-13T06:18:11.091Z,95142.00
2023-01-13T06:19:11.030Z,95142.00
2023-01-13T06:20:11.024Z,95134.00
2023-01-13T06:21:11.176Z,95134.00
2023-01-13T06:22:10.873Z,95134.00
2023-01-13T06:23:10.875Z,95134.00
2023-01-13T06:24:10.779Z,95134.00
2023-01-13T06:25:10.729Z,95132.00
2023-01-13T06:26:10.683Z,95132.00
2023-01-13T06:27:10.636Z,95130.00
2023-01-13T06:28:10.624Z,95129.00
2023-01-13T06:29:10.564Z,95125.00
2023-01-13T06:30:10.535Z,95125.00
2023-01-13T06:31:10.532Z,95127.00
2023-01-13T06:32:10.438Z,95127.00
2023-01-13T06:33:10.397Z,95125.00
2023-01-13T06:34:10.329Z,95123.00
2023-01-13T06:35:10.285Z,95115.00
2023-01-13T06:36:10.269Z,95115.00
2023-01-13T06:37:10.190Z,95111.00
2023-01-13T06:38:10.131Z,95109.00
2023-01-13T06:39:10.096Z,95109.00
2023-01-13T06:40:10.162Z,95103.00
2023-01-13T06:41:09.993Z,95099.00
2023-01-13T06:42:09.939Z,95093.00
2023-01-13T06:43:09.888Z,95097.00
2023-01-13T06:44:10.163Z,95093.00
2023-01-13T06:45:09.811Z,95095.00
2023-01-13T06:46:09.789Z,95087.00
2023-01-13T06:47:09.697Z,95091.00
2023-01-13T06:48:09.665Z,95091.00
2023-01-13T06:49:09.651Z,95095.00
2023-01-13T06:50:09.562Z,95095.00
2023-01-13T06:51:09.554Z,95103.00
2023-01-13T06:52:09.475Z,95097.00
2023-01-13T06:53:09.691Z,95097.00
2023-01-13T06:54:09.675Z,95101.00
2023-01-13T06:55:09.513Z,95105.00
2023-01-13T06:56:09.633Z,95109.00
2023-01-13T06:57:09.392Z,95109.00
2023-01-13T06:58:09.684Z,95115.00
2023-01-13T06:59:09.156Z,95115.00
2023-01-13T07:00:09.172Z,95119.00
2023-01-13T07:01:09.397Z,95117.00
2023-01-13T07:02:09.324Z,95119.00
2023-01-13T07:03:09.716Z,95119.00
2023-01-13T07:04:09.167Z,95125.00
2023-01-13T07:05:09.182Z,95125.00
2023-01-13T07:06:09.830Z,95121.00
2023-01-13T07:07:09.208Z,95123.00
2023-01-13T07:08:09.240Z,95129.00
2023-01-13T07:09:09.254Z,95130.00
2023-01-13T07:10:09.256Z,95127.00
2023-01-13T07:11:16.676Z,95119.00
2023-01-13T07:12:09.321Z,95115.00
2023-01-13T07:13:09.375Z,95117.00
2023-01-13T07:14:09.392Z,95115.00
2023-01-13T07:15:09.491Z,95117.00
2023-01-13T07:16:09.531Z,95105.00
2023-01-13T07:17:09.499Z,95107.00
2023-01-13T07:18:09.531Z,95113.00
2023-01-13T07:19:09.713Z,95109.00
2023-01-13T07:20:09.572Z,95105.00
2023-01-13T07:21:10.505Z,95103.00
2023-01-13T07:22:09.779Z,95101.00
2023-01-13T07:23:09.627Z,95101.00
2023-01-13T07:24:09.883Z,95101.00
2023-01-13T07:25:09.690Z,95109.00
2023-01-13T07:26:09.740Z,95111.00
2023-01-13T07:27:09.744Z,95115.00
2023-01-13T07:28:09.723Z,95113.00
2023-01-13T07:29:10.204Z,95109.00
2023-01-13T07:30:09.797Z,95109.00
2023-01-13T07:31:10.165Z,95107.00
2023-01-13T07:32:09.850Z,95115.00
2023-01-13T07:33:09.852Z,95115.00
2023-01-13T07:34:10.235Z,95115.00
2023-01-13T07:35:09.908Z,95115.00
2023-01-13T07:36:17.329Z,95107.00
2023-01-13T07:37:10.254Z,95105.00
2023-01-13T07:38:09.996Z,95101.00
2023-01-13T07:39:10.020Z,95099.00
2023-01-13T07:40:10.075Z,95099.00
2023-01-13T07:41:10.189Z,95097.00
2023-01-13T07:42:10.075Z,95091.00
2023-01-13T07:43:10.101Z,95085.00
2023-01-13T07:44:10.144Z,95089.00
2023-01-13T07:45:12.214Z,95087.00
2023-01-13T07:46:10.255Z,95089.00
2023-01-13T07:47:10.189Z,95089.00
2023-01-13T07:48:10.678Z,95097.00
2023-01-13T07:49:10.184Z,95093.00
2023-01-13T07:50:10.217Z,95093.00
2023-01-13T07:51:10.218Z,95099.00
2023-01-13T07:52:10.152Z,95105.00
2023-01-13T07:53:10.154Z,95093.00
2023-01-13T07:54:10.176Z,95095.00
2023-01-13T07:55:10.074Z,95097.00
2023-01-13T07:56:10.226Z,95095.00
2023-01-13T07:57:10.045Z,95095.00
2023-01-13T07:58:09.967Z,95095.00
2023-01-13T07:59:10.184Z,95099.00
2023-01-13T08:00:12.679Z,95099.00
2023-01-13T08:01:10.035Z,95101.00
2023-01-13T08:02:10.000Z,95099.00
2023-01-13T08:03:09.869Z,95099.00
2023-01-13T08:04:10.202Z,95095.00
2023-01-13T08:05:09.715Z,95103.00
2023-01-13T08:06:09.703Z,95107.00
2023-01-13T08:07:09.634Z,95109.00
2023-01-13T08:08:09.600Z,95105.00
2023-01-13T08:09:09.680Z,95111.00
2023-01-13T08:10:09.496Z,95113.00
2023-01-13T08:11:10.225Z,95109.00
2023-01-13T08:12:09.409Z,95107.00
2023-01-13T08:13:09.413Z,95107.00
2023-01-13T08:14:09.353Z,95107.00
2023-01-13T08:15:09.685Z,95113.00
2023-01-13T08:16:09.230Z,95105.00
2023-01-13T08:17:09.196Z,95105.00
2023-01-13T08:18:09.607Z,95099.00
2023-01-13T08:19:09.613Z,95097.00
2023-01-13T08:20:09.188Z,95087.00
2023-01-13T08:21:09.006Z,95085.00
2023-01-13T08:22:08.983Z,95087.00
2023-01-13T08:23:08.913Z,95093.00
2023-01-13T08:24:09.042Z,95097.00
2023-01-13T08:25:09.196Z,95101.00
2023-01-13T08:26:08.782Z,95101.00
2023-01-13T08:27:08.756Z,95101.00
2023-01-13T08:28:08.715Z,95105.00
2023-01-13T08:29:08.858Z,95099.00
2023-01-13T08:30:08.774Z,95097.00
2023-01-13T08:31:09.280Z,95099.00
2023-01-13T08:32:08.680Z,95099.00
2023-01-13T08:33:08.760Z,95097.00
2023-01-13T08:34:08.694Z,95099.00
2023-01-13T08:35:08.717Z,95105.00
2023-01-13T08:36:08.316Z,95105.00
2023-01-13T08:37:08.262Z,95107.00
2023-01-13T08:38:08.269Z,95103.00
2023-01-13T08:40:08.119Z,95105.00
2023-01-13T08:41:08.031Z,95105.00
2023-01-13T08:42:08.003Z,95109.00
2023-01-13T08:43:08.236Z,95117.00
2023-01-13T08:44:08.224Z,95117.00
2023-01-13T08:45:07.866Z,95121.00
2023-01-13T08:46:07.906Z,95115.00
2023-01-13T08:47:07.747Z,95115.00
2023-01-13T08:48:07.748Z,95117.00
2023-01-13T08:49:07.650Z,95115.00
2023-01-13T08:50:07.821Z,95115.00
2023-01-13T08:51:07.583Z,95119.00
2023-01-13T08:52:07.494Z,95130.00
2023-01-13T08:53:07.719Z,95130.00
2023-01-13T08:54:07.482Z,95125.00
2023-01-13T08:55:07.392Z,95123.00
2023-01-13T08:56:07.731Z,95123.00
2023-01-13T08:57:07.509Z,95121.00
2023-01-13T08:58:15.391Z,95125.00
2023-01-13T08:59:07.479Z,95129.00
2023-01-13T09:00:07.655Z,95134.00
2023-01-13T09:01:07.908Z,95136.00
2023-01-13T09:02:07.715Z,95138.00
2023-01-13T09:03:07.449Z,95140.00
2023-01-13T09:04:07.514Z,95138.00
2023-01-13T09:05:07.538Z,95132.00
2023-01-13T09:06:07.767Z,95132.00
2023-01-13T09:07:07.386Z,95134.00
2023-01-13T09:08:07.350Z,95138.00
2023-01-13T09:09:07.300Z,95136.00
2023-01-13T09:10:07.314Z,95136.00
2023-01-13T09:11:07.711Z,95138.00
2023-01-13T09:12:07.237Z,95134.00
2023-01-13T09:13:07.189Z,95130.00
2023-01-13T09:14:07.101Z,95130.00
2023-01-13T09:15:07.231Z,95132.00
2023-01-13T09:16:07.055Z,95134.00
2023-01-13T09:17:06.984Z,95136.00
2023-01-13T09:18:06.940Z,95132.00
2023-01-13T09:19:06.881Z,95127.00
2023-01-13T09:20:07.219Z,95129.00
2023-01-13T09:21:06.808Z,95121.00
2023-01-13T09:22:06.732Z,95121.00
2023-01-13T09:23:10.306Z,95121.00
2023-01-13T09:24:06.623Z,95123.00
2023-01-13T09:25:06.752Z,95121.00
2023-01-13T09:26:06.569Z,95123.00
2023-01-13T09:27:06.492Z,95123.00
2023-01-13T09:28:07.400Z,95119.00
2023-01-13T09:29:06.396Z,95119.00
2023-01-13T09:30:06.742Z,95115.00
2023-01-13T09:31:06.351Z,95115.00
2023-01-13T09:32:06.220Z,95121.00
2023-01-13T09:33:06.178Z,95113.00
2023-01-13T09:34:06.168Z,95109.00
2023-01-13T09:35:06.144Z,95105.00
2023-01-13T09:36:06.134Z,95103.00
2023-01-13T09:37:06.240Z,95099.00
2023-01-13T09:38:06.124Z,95103.00
2023-01-13T09:39:06.104Z,95103.00
2023-01-13T09:40:06.102Z,95099.00
2023-01-13T09:41:06.107Z,95099.00
2023-01-13T09:42:06.319Z,95103.00
2023-01-13T09:43:06.235Z,95099.00
2023-01-13T09:44:06.209Z,95097.00
2023-01-13T09:45:06.199Z,95097.00
2023-01-13T09:46:06.309Z,95101.00
2023-01-13T09:47:06.284Z,95103.00
2023-01-13T09:48:06.201Z,95109.00
2023-01-13T09:49:06.245Z,95103.00
2023-01-13T09:50:06.203Z,95099.00
2023-01-13T09:51:06.292Z,95101.00
2023-01-13T09:52:06.139Z,95097.00
2023-01-13T09:53:06.133Z,95097.00
2023-01-13T09:54:06.065Z,95099.00
2023-01-13T09:55:06.047Z,95095.00
2023-01-13T09:56:06.264Z,95095.00
2023-01-13T09:57:05.989Z,95099.00
2023-01-13T09:58:08.636Z,95099.00
2023-01-13T09:59:05.977Z,95095.00
2023-01-13T10:00:05.924Z,95093.00
2023-01-13T10:01:05.879Z,95095.00
2023-01-13T10:02:06.239Z,95097.00
2023-01-13T10:03:05.837Z,95097.00
2023-01-13T10:04:06.769Z,95095.00
2023-01-13T10:05:05.796Z,95095.00
2023-01-13T10:06:06.687Z,95101.00
2023-01-13T10:07:05.644Z,95101.00
2023-01-13T10:08:05.640Z,95097.00
2023-01-13T10:09:05.528Z,95099.00
2023-01-13T10:10:07.913Z,95095.00
2023-01-13T10:11:05.471Z,95095.00
2023-01-13T10:12:05.764Z,95103.00
2023-01-13T10:13:05.349Z,95105.00
2023-01-13T10:14:05.352Z,95103.00
2023-01-13T10:15:05.340Z,95097.00
2023-01-13T10:16:05.248Z,95097.00
2023-01-13T10:17:05.273Z,95097.00
2023-01-13T10:18:05.119Z,95097.00
2023-01-13T10:19:05.048Z,95093.00
2023-01-13T10:20:04.996Z,95085.00
2023-01-13T10:21:04.963Z,95085.00
2023-01-13T10:22:04.911Z,95078.00
2023-01-13T10:23:05.236Z,95080.00
2023-01-13T10:24:04.815Z,95074.00
2023-01-13T10:25:05.353Z,95074.00
2023-01-13T10:26:04.773Z,95070.00
2023-01-13T10:27:04.672Z,95070.00
2023-01-13T10:28:04.611Z,95066.00
2023-01-13T10:29:04.559Z,95068.00
2023-01-13T10:30:04.778Z,95066.00
2023-01-13T10:31:04.478Z,95064.00
2023-01-13T10:32:04.400Z,95062.00
2023-01-13T10:33:04.342Z,95056.00
2023-01-13T10:34:04.302Z,95062.00
2023-01-13T10:35:04.251Z,95052.00
2023-01-13T10:36:04.183Z,95050.00
2023-01-13T10:37:04.128Z,95048.00
2023-01-13T10:38:04.247Z,95048.00
2023-01-13T10:39:04.037Z,95044.00
2023-01-13T10:40:03.956Z,95042.00
2023-01-13T10:41:03.893Z,95044.00
2023-01-13T10:42:03.858Z,95044.00
2023-01-13T10:43:19.856Z,95038.00
2023-01-13T10:44:03.751Z,95042.00
2023-01-13T10:45:03.723Z,95038.00
2023-01-13T10:46:03.879Z,95036.00
2023-01-13T10:47:03.746Z,95034.00
2023-01-13T10:48:03.501Z,95032.00
2023-01-13T10:49:03.597Z,95030.00
2023-01-13T10:50:03.410Z,95030.00
2023-01-13T10:51:03.342Z,95025.00
2023-01-13T10:52:03.957Z,95027.00
2023-01-13T10:53:03.215Z,95028.00
2023-01-13T10:54:03.214Z,95030.00
2023-01-13T10:55:03.094Z,95028.00
2023-01-13T10:56:03.505Z,95027.00
2023-01-13T10:57:03.278Z,95027.00
2023-01-13T10:58:03.282Z,95028.00
2023-01-13T10:59:02.878Z,95027.00
2023-01-13T11:00:04.278Z,95030.00
2023-01-13T11:01:02.933Z,95030.00
2023-01-13T11:02:13.152Z,95036.00
2023-01-13T11:03:02.889Z,95028.00
2023-01-13T11:04:02.690Z,95027.00
2023-01-13T11:05:02.929Z,95028.00
2023-01-13T11:06:02.600Z,95027.00
2023-01-13T11:07:02.764Z,95021.00
2023-01-13T11:08:02.587Z,95015.00
2023-01-13T11:09:02.758Z,95007.00
2023-01-13T11:10:02.611Z,95003.00
2023-01-13T11:11:02.605Z,95003.00
2023-01-13T11:13:02.625Z,95011.00
2023-01-13T11:14:02.770Z,95011.00
2023-01-13T11:15:02.582Z,95007.00
2023-01-13T11:16:03.607Z,95005.00
2023-01-13T11:17:02.794Z,95009.00
2023-01-13T11:18:02.577Z,95015.00
2023-01-13T11:19:02.584Z,95021.00
2023-01-13T11:20:02.370Z,95013.00
2023-01-13T11:21:02.337Z,95009.00
2023-01-13T11:22:04.336Z,95011.00
2023-01-13T11:23:02.285Z,95009.00
2023-01-13T11:24:02.291Z,95009.00
2023-01-13T11:25:02.144Z,95005.00
2023-01-13T11:26:02.057Z,95009.00
2023-01-13T11:27:02.016Z,95005.00
2023-01-13T11:28:01.979Z,94993.00
2023-01-13T11:29:02.758Z,94995.00
2023-01-13T11:30:01.885Z,94997.00
2023-01-13T11:31:01.889Z,94993.00
2023-01-13T11:32:01.824Z,94989.00
2023-01-13T11:33:01.799Z,94993.00
2023-01-13T11:34:01.776Z,94995.00
2023-01-13T11:35:01.712Z,94995.00
2023-01-13T11:36:01.675Z,94995.00
2023-01-13T11:37:01.789Z,94995.00
2023-01-13T11:38:01.594Z,94993.00
2023-01-13T11:39:01.559Z,94993.00
2023-01-13T11:40:01.775Z,94997.00
2023-01-13T11:41:01.467Z,94997.00
2023-01-13T11:42:01.767Z,94991.00
2023-01-13T11:43:01.388Z,94989.00
2023-01-13T11:44:01.344Z,94989.00
2023-01-13T11:45:01.295Z,94987.00
2023-01-13T11:46:01.253Z,94987.00
2023-01-13T11:47:01.356Z,94991.00
2023-01-13T11:48:01.172Z,94989.00
2023-01-13T11:49:01.187Z,94987.00
2023-01-13T11:50:01.134Z,94981.00
2023-01-13T11:51:01.051Z,94974.00
2023-01-13T11:52:00.998Z,94972.00
2023-01-13T11:53:01.279Z,94972.00
2023-01-13T11:54:01.279Z,94972.00
2023-01-13T11:55:00.851Z,94972.00
2023-01-13T11:56:00.801Z,94972.00
2023-01-13T11:57:00.754Z,94970.00
2023-01-13T11:58:00.715Z,94970.00
2023-01-13T11:59:00.682Z,94968.00
2023-01-13T12:00:00.631Z,94966.00
2023-01-13T12:01:00.642Z,94962.00
2023-01-13T12:02:00.632Z,94962.00
2023-01-13T12:03:00.529Z,94960.00
2023-01-13T12:04:00.443Z,94962.00
2023-01-13T12:05:00.780Z,94962.00
2023-01-13T12:06:00.373Z,94962.00
2023-01-13T12:07:00.298Z,94958.00
2023-01-13T12:08:00.294Z,94958.00
2023-01-13T12:09:00.204Z,94958.00
2023-01-13T12:10:00.286Z,94958.00
2023-01-13T12:11:00.120Z,94964.00
2023-01-13T12:12:00.061Z,94966.00
2023-01-13T12:13:00.280Z,94972.00
2023-01-13T12:13:59.965Z,94970.00
2023-01-13T12:15:00.289Z,94974.00
2023-01-13T12:15:59.879Z,94964.00
2023-01-13T12:17:01.308Z,94966.00
2023-01-13T12:17:59.878Z,94964.00
2023-01-13T12:18:59.837Z,94966.00
2023-01-13T12:20:00.303Z,94966.00
2023-01-13T12:20:59.743Z,94968.00
2023-01-13T12:21:59.733Z,94968.00
2023-01-13T12:22:59.665Z,94970.00
2023-01-13T12:23:59.620Z,94966.00
2023-01-13T12:24:59.789Z,94960.00
2023-01-13T12:25:59.543Z,94958.00
2023-01-13T12:26:59.501Z,94958.00
2023-01-13T12:27:59.455Z,94958.00
2023-01-13T12:28:59.474Z,94954.00
2023-01-13T12:29:59.378Z,94952.00
2023-01-13T12:30:59.335Z,94954.00
2023-01-13T12:32:00.370Z,94950.00
2023-01-13T12:32:59.247Z,94952.00
2023-01-13T12:33:59.233Z,94948.00
2023-01-13T12:34:59.293Z,94948.00
2023-01-13T12:35:59.118Z,94946.00
2023-01-13T12:36:59.061Z,94944.00
2023-01-13T12:37:59.055Z,94946.00
2023-01-13T12:38:58.980Z,94940.00
2023-01-13T12:39:58.968Z,94940.00